EGPE/INV METAR and TAF weather

Enter ICAO airport designator
Station Type Date Time Source
EGPE METAR 2018/01/22 11:20 UTC NOAA

EGPE 221120Z 24015KT 9999 VCSH FEW015 BKN031 06/05 Q1000


Station Type Date Time Source
EGPE Decoded METAR 2018/01/22 11:20 UTC NOAA

Inverness / Dalcross, United Kingdom (EGPE) 57-32N 004-03W 0M
Jan 22, 2018 - 06:20 AM EST / 2018.01.22 1120 UTC
Wind: from the WSW (240 degrees) at 17 MPH (15 KT):0
Visibility: greater than 7 mile(s):0
Sky conditions: mostly cloudy
Weather: showers in the vicinity
Temperature: 42 F (6 C)
Dew Point: 41 F (5 C)
Relative Humidity: 93%
Pressure (altimeter): 29.53 in. Hg (1000 hPa)
ob: EGPE 221120Z 24015KT 9999 VCSH FEW015 BKN031 06/05 Q1000
cycle: 11

Station Type Date Time Source
EGPE TAF UTC NOAA

Error!


Example: see airport list